sensor_id;sensor_type;location;lat;lon;timestamp;P1;durP1;ratioP1;P2;durP2;ratioP2
49858;SDS011;35756;52.346;13.622;2022-11-18T00:01:21;40.38;;;19.08;;
49858;SDS011;35756;52.346;13.622;2022-11-18T00:03:47;40.00;;;18.25;;
49858;SDS011;35756;52.346;13.622;2022-11-18T00:06:14;36.10;;;17.58;;
49858;SDS011;35756;52.346;13.622;2022-11-18T00:08:43;35.42;;;17.58;;
49858;SDS011;35756;52.346;13.622;2022-11-18T00:11:09;36.05;;;18.17;;
49858;SDS011;35756;52.346;13.622;2022-11-18T00:14:01;36.40;;;17.50;;
49858;SDS011;35756;52.346;13.622;2022-11-18T00:16:45;35.58;;;17.80;;
49858;SDS011;35756;52.346;13.622;2022-11-18T00:19:11;39.53;;;19.60;;
49858;SDS011;35756;52.346;13.622;2022-11-18T00:21:36;41.80;;;19.65;;
49858;SDS011;35756;52.346;13.622;2022-11-18T00:24:01;39.53;;;18.17;;
49858;SDS011;35756;52.346;13.622;2022-11-18T00:26:27;34.97;;;19.05;;
49858;SDS011;35756;52.346;13.622;2022-11-18T00:28:52;36.88;;;19.48;;
49858;SDS011;35756;52.346;13.622;2022-11-18T00:31:17;35.95;;;22.52;;
49858;SDS011;35756;52.346;13.622;2022-11-18T00:33:42;38.30;;;18.48;;
49858;SDS011;35756;52.346;13.622;2022-11-18T00:36:10;41.35;;;18.55;;
49858;SDS011;35756;52.346;13.622;2022-11-18T00:38:36;38.05;;;18.08;;
49858;SDS011;35756;52.346;13.622;2022-11-18T00:41:02;37.88;;;17.80;;
49858;SDS011;35756;52.346;13.622;2022-11-18T00:43:29;39.42;;;18.50;;
49858;SDS011;35756;52.346;13.622;2022-11-18T00:45:54;38.47;;;18.80;;
49858;SDS011;35756;52.346;13.622;2022-11-18T00:48:19;41.63;;;18.33;;
49858;SDS011;35756;52.346;13.622;2022-11-18T00:50:55;41.42;;;18.92;;
49858;SDS011;35756;52.346;13.622;2022-11-18T00:53:22;39.78;;;18.88;;
49858;SDS011;35756;52.346;13.622;2022-11-18T00:55:50;39.03;;;19.55;;
49858;SDS011;35756;52.346;13.622;2022-11-18T00:58:15;39.35;;;18.55;;
49858;SDS011;35756;52.346;13.622;2022-11-18T01:00:41;38.95;;;18.95;;
49858;SDS011;35756;52.346;13.622;2022-11-18T01:03:07;46.17;;;26.48;;
49858;SDS011;35756;52.346;13.622;2022-11-18T01:05:33;102.88;;;90.72;;
49858;SDS011;35756;52.346;13.622;2022-11-18T01:07:58;40.35;;;19.52;;
49858;SDS011;35756;52.346;13.622;2022-11-18T01:10:24;44.83;;;20.27;;
49858;SDS011;35756;52.346;13.622;2022-11-18T01:12:49;46.75;;;20.38;;
49858;SDS011;35756;52.346;13.622;2022-11-18T01:15:37;38.95;;;17.10;;
49858;SDS011;35756;52.346;13.622;2022-11-18T01:18:04;43.90;;;19.98;;
49858;SDS011;35756;52.346;13.622;2022-11-18T01:20:30;40.50;;;19.80;;
49858;SDS011;35756;52.346;13.622;2022-11-18T01:22:56;46.85;;;20.58;;
49858;SDS011;35756;52.346;13.622;2022-11-18T01:25:22;42.97;;;19.23;;
49858;SDS011;35756;52.346;13.622;2022-11-18T01:27:47;44.85;;;19.45;;
49858;SDS011;35756;52.346;13.622;2022-11-18T01:30:12;39.38;;;20.42;;
49858;SDS011;35756;52.346;13.622;2022-11-18T01:32:38;47.60;;;20.17;;
49858;SDS011;35756;52.346;13.622;2022-11-18T01:35:03;45.55;;;19.58;;
49858;SDS011;35756;52.346;13.622;2022-11-18T01:37:29;45.22;;;19.67;;
49858;SDS011;35756;52.346;13.622;2022-11-18T01:39:54;40.22;;;19.08;;
49858;SDS011;35756;52.346;13.622;2022-11-18T01:42:19;38.92;;;19.33;;
49858;SDS011;35756;52.346;13.622;2022-11-18T01:44:56;41.25;;;19.05;;
49858;SDS011;35756;52.346;13.622;2022-11-18T01:47:41;40.22;;;19.27;;
49858;SDS011;35756;52.346;13.622;2022-11-18T01:50:09;39.05;;;18.70;;
49858;SDS011;35756;52.346;13.622;2022-11-18T01:52:35;44.88;;;20.52;;
49858;SDS011;35756;52.346;13.622;2022-11-18T01:55:09;39.78;;;19.15;;
49858;SDS011;35756;52.346;13.622;2022-11-18T01:57:36;39.00;;;19.30;;
49858;SDS011;35756;52.346;13.622;2022-11-18T02:00:03;36.90;;;18.48;;
49858;SDS011;35756;52.346;13.622;2022-11-18T02:02:30;37.28;;;18.33;;
49858;SDS011;35756;52.346;13.622;2022-11-18T02:04:57;40.08;;;19.50;;
49858;SDS011;35756;52.346;13.622;2022-11-18T02:07:23;34.97;;;18.90;;
49858;SDS011;35756;52.346;13.622;2022-11-18T02:09:49;37.90;;;21.13;;
49858;SDS011;35756;52.346;13.622;2022-11-18T02:12:16;36.30;;;18.58;;
49858;SDS011;35756;52.346;13.622;2022-11-18T02:14:42;41.88;;;20.20;;
49858;SDS011;35756;52.346;13.622;2022-11-18T02:17:14;35.90;;;17.38;;
49858;SDS011;35756;52.346;13.622;2022-11-18T02:20:22;37.13;;;18.65;;
49858;SDS011;35756;52.346;13.622;2022-11-18T02:23:11;34.78;;;19.60;;
49858;SDS011;35756;52.346;13.622;2022-11-18T02:26:12;36.22;;;18.63;;
49858;SDS011;35756;52.346;13.622;2022-11-18T02:28:55;42.88;;;30.85;;
49858;SDS011;35756;52.346;13.622;2022-11-18T02:31:32;38.65;;;20.17;;
49858;SDS011;35756;52.346;13.622;2022-11-18T02:34:11;36.05;;;21.95;;
49858;SDS011;35756;52.346;13.622;2022-11-18T02:36:58;35.23;;;21.13;;
49858;SDS011;35756;52.346;13.622;2022-11-18T02:39:35;38.88;;;21.08;;
49858;SDS011;35756;52.346;13.622;2022-11-18T02:42:04;36.65;;;26.60;;
49858;SDS011;35756;52.346;13.622;2022-11-18T02:44:32;36.80;;;21.35;;
49858;SDS011;35756;52.346;13.622;2022-11-18T02:47:00;67.78;;;46.72;;
49858;SDS011;35756;52.346;13.622;2022-11-18T02:49:37;34.20;;;18.63;;
49858;SDS011;35756;52.346;13.622;2022-11-18T02:52:04;37.38;;;21.80;;
49858;SDS011;35756;52.346;13.622;2022-11-18T02:54:31;36.60;;;24.10;;
49858;SDS011;35756;52.346;13.622;2022-11-18T02:56:56;36.50;;;23.52;;
49858;SDS011;35756;52.346;13.622;2022-11-18T02:59:22;41.85;;;35.45;;
49858;SDS011;35756;52.346;13.622;2022-11-18T03:01:48;38.13;;;25.50;;
49858;SDS011;35756;52.346;13.622;2022-11-18T03:04:14;45.50;;;40.75;;
49858;SDS011;35756;52.346;13.622;2022-11-18T03:06:41;36.13;;;24.98;;
49858;SDS011;35756;52.346;13.622;2022-11-18T03:09:11;45.08;;;30.50;;
49858;SDS011;35756;52.346;13.622;2022-11-18T03:14:51;42.40;;;34.15;;
49858;SDS011;35756;52.346;13.622;2022-11-18T03:17:31;46.15;;;40.65;;
49858;SDS011;35756;52.346;13.622;2022-11-18T03:20:19;84.43;;;78.35;;
49858;SDS011;35756;52.346;13.622;2022-11-18T03:22:49;121.10;;;111.78;;
49858;SDS011;35756;52.346;13.622;2022-11-18T03:25:19;43.60;;;38.55;;
49858;SDS011;35756;52.346;13.622;2022-11-18T03:27:52;44.25;;;39.50;;
49858;SDS011;35756;52.346;13.622;2022-11-18T03:30:23;44.20;;;36.03;;
49858;SDS011;35756;52.346;13.622;2022-11-18T03:32:50;66.38;;;60.30;;
49858;SDS011;35756;52.346;13.622;2022-11-18T03:35:21;63.53;;;58.10;;
49858;SDS011;35756;52.346;13.622;2022-11-18T03:37:48;42.58;;;35.35;;
49858;SDS011;35756;52.346;13.622;2022-11-18T03:40:17;37.47;;;30.27;;
49858;SDS011;35756;52.346;13.622;2022-11-18T03:42:48;48.45;;;43.33;;
49858;SDS011;35756;52.346;13.622;2022-11-18T03:45:19;63.40;;;57.55;;
49858;SDS011;35756;52.346;13.622;2022-11-18T03:47:50;40.40;;;35.28;;
49858;SDS011;35756;52.346;13.622;2022-11-18T03:50:20;38.58;;;21.70;;
49858;SDS011;35756;52.346;13.622;2022-11-18T03:52:56;38.03;;;25.20;;
49858;SDS011;35756;52.346;13.622;2022-11-18T03:55:23;42.33;;;31.48;;
49858;SDS011;35756;52.346;13.622;2022-11-18T03:57:50;40.85;;;32.13;;
49858;SDS011;35756;52.346;13.622;2022-11-18T04:00:19;40.47;;;22.67;;
49858;SDS011;35756;52.346;13.622;2022-11-18T04:02:44;40.13;;;22.50;;
49858;SDS011;35756;52.346;13.622;2022-11-18T04:05:11;38.78;;;19.52;;
49858;SDS011;35756;52.346;13.622;2022-11-18T04:07:40;41.13;;;30.00;;
49858;SDS011;35756;52.346;13.622;2022-11-18T04:13:05;37.60;;;20.77;;
49858;SDS011;35756;52.346;13.622;2022-11-18T04:15:32;38.33;;;22.98;;
49858;SDS011;35756;52.346;13.622;2022-11-18T04:17:57;38.05;;;26.52;;
49858;SDS011;35756;52.346;13.622;2022-11-18T04:20:23;38.50;;;22.33;;
49858;SDS011;35756;52.346;13.622;2022-11-18T04:22:49;37.42;;;18.85;;
49858;SDS011;35756;52.346;13.622;2022-11-18T04:25:14;40.00;;;19.35;;
49858;SDS011;35756;52.346;13.622;2022-11-18T04:27:40;39.92;;;21.50;;
49858;SDS011;35756;52.346;13.622;2022-11-18T04:30:06;106.10;;;79.38;;
49858;SDS011;35756;52.346;13.622;2022-11-18T04:32:31;59.17;;;53.28;;
49858;SDS011;35756;52.346;13.622;2022-11-18T04:34:57;35.88;;;19.55;;
49858;SDS011;35756;52.346;13.622;2022-11-18T04:37:22;59.17;;;52.25;;
49858;SDS011;35756;52.346;13.622;2022-11-18T04:39:48;39.25;;;23.10;;
49858;SDS011;35756;52.346;13.622;2022-11-18T04:42:13;39.13;;;21.17;;
49858;SDS011;35756;52.346;13.622;2022-11-18T04:44:38;38.53;;;20.33;;
49858;SDS011;35756;52.346;13.622;2022-11-18T04:47:04;37.10;;;20.40;;
49858;SDS011;35756;52.346;13.622;2022-11-18T04:49:30;38.75;;;19.67;;
49858;SDS011;35756;52.346;13.622;2022-11-18T04:51:56;40.40;;;20.80;;
49858;SDS011;35756;52.346;13.622;2022-11-18T04:54:22;40.88;;;21.73;;
49858;SDS011;35756;52.346;13.622;2022-11-18T04:56:48;105.30;;;95.15;;
49858;SDS011;35756;52.346;13.622;2022-11-18T04:59:14;41.45;;;22.95;;
49858;SDS011;35756;52.346;13.622;2022-11-18T05:01:41;39.03;;;22.77;;
49858;SDS011;35756;52.346;13.622;2022-11-18T05:04:06;45.65;;;29.10;;
49858;SDS011;35756;52.346;13.622;2022-11-18T05:06:32;38.10;;;21.00;;
49858;SDS011;35756;52.346;13.622;2022-11-18T05:08:58;38.85;;;25.92;;
49858;SDS011;35756;52.346;13.622;2022-11-18T05:11:24;43.47;;;33.95;;
49858;SDS011;35756;52.346;13.622;2022-11-18T05:14:08;108.45;;;98.15;;
49858;SDS011;35756;52.346;13.622;2022-11-18T05:16:33;40.33;;;25.58;;
49858;SDS011;35756;52.346;13.622;2022-11-18T05:19:00;41.00;;;22.20;;
49858;SDS011;35756;52.346;13.622;2022-11-18T05:21:25;36.58;;;21.65;;
49858;SDS011;35756;52.346;13.622;2022-11-18T05:23:51;40.75;;;24.50;;
49858;SDS011;35756;52.346;13.622;2022-11-18T05:26:16;37.03;;;22.92;;
49858;SDS011;35756;52.346;13.622;2022-11-18T05:28:41;34.05;;;19.55;;
49858;SDS011;35756;52.346;13.622;2022-11-18T05:31:07;127.90;;;109.50;;
49858;SDS011;35756;52.346;13.622;2022-11-18T05:33:33;38.53;;;20.33;;
49858;SDS011;35756;52.346;13.622;2022-11-18T05:36:09;43.67;;;26.05;;
49858;SDS011;35756;52.346;13.622;2022-11-18T05:38:36;174.25;;;157.18;;
49858;SDS011;35756;52.346;13.622;2022-11-18T05:41:02;43.17;;;23.90;;
49858;SDS011;35756;52.346;13.622;2022-11-18T05:43:28;46.35;;;23.95;;
49858;SDS011;35756;52.346;13.622;2022-11-18T05:45:54;57.20;;;45.20;;
49858;SDS011;35756;52.346;13.622;2022-11-18T05:48:19;46.10;;;22.23;;
49858;SDS011;35756;52.346;13.622;2022-11-18T05:50:48;52.65;;;34.75;;
49858;SDS011;35756;52.346;13.622;2022-11-18T05:53:15;42.83;;;25.23;;
49858;SDS011;35756;52.346;13.622;2022-11-18T05:55:47;43.35;;;24.05;;
49858;SDS011;35756;52.346;13.622;2022-11-18T05:58:15;49.83;;;40.85;;
49858;SDS011;35756;52.346;13.622;2022-11-18T06:00:40;51.50;;;30.40;;
49858;SDS011;35756;52.346;13.622;2022-11-18T06:03:08;48.60;;;26.60;;
49858;SDS011;35756;52.346;13.622;2022-11-18T06:05:37;44.60;;;25.58;;
49858;SDS011;35756;52.346;13.622;2022-11-18T06:08:02;49.40;;;35.90;;
49858;SDS011;35756;52.346;13.622;2022-11-18T06:10:29;51.80;;;45.85;;
49858;SDS011;35756;52.346;13.622;2022-11-18T06:12:57;55.40;;;36.97;;
49858;SDS011;35756;52.346;13.622;2022-11-18T06:15:26;96.00;;;86.35;;
49858;SDS011;35756;52.346;13.622;2022-11-18T06:17:55;90.90;;;83.35;;
49858;SDS011;35756;52.346;13.622;2022-11-18T06:20:22;76.25;;;69.05;;
49858;SDS011;35756;52.346;13.622;2022-11-18T06:22:49;146.88;;;135.55;;
49858;SDS011;35756;52.346;13.622;2022-11-18T06:25:15;147.07;;;136.65;;
49858;SDS011;35756;52.346;13.622;2022-11-18T06:27:40;111.60;;;103.38;;
49858;SDS011;35756;52.346;13.622;2022-11-18T06:30:06;108.78;;;100.70;;
49858;SDS011;35756;52.346;13.622;2022-11-18T06:32:32;131.15;;;122.65;;
49858;SDS011;35756;52.346;13.622;2022-11-18T06:34:57;89.28;;;82.35;;
49858;SDS011;35756;52.346;13.622;2022-11-18T06:37:22;61.05;;;55.10;;
49858;SDS011;35756;52.346;13.622;2022-11-18T06:39:48;52.60;;;46.00;;
49858;SDS011;35756;52.346;13.622;2022-11-18T06:42:13;73.68;;;66.85;;
49858;SDS011;35756;52.346;13.622;2022-11-18T06:44:58;94.45;;;87.45;;
49858;SDS011;35756;52.346;13.622;2022-11-18T06:47:23;132.65;;;123.68;;
49858;SDS011;35756;52.346;13.622;2022-11-18T06:49:49;85.47;;;78.85;;
49858;SDS011;35756;52.346;13.622;2022-11-18T06:52:14;90.05;;;83.10;;
49858;SDS011;35756;52.346;13.622;2022-11-18T06:54:39;156.02;;;146.45;;
49858;SDS011;35756;52.346;13.622;2022-11-18T06:57:05;172.45;;;158.52;;
49858;SDS011;35756;52.346;13.622;2022-11-18T06:59:30;49.65;;;44.17;;
49858;SDS011;35756;52.346;13.622;2022-11-18T07:01:56;51.05;;;43.72;;
49858;SDS011;35756;52.346;13.622;2022-11-18T07:04:21;64.40;;;58.70;;
49858;SDS011;35756;52.346;13.622;2022-11-18T07:06:46;48.45;;;41.67;;
49858;SDS011;35756;52.346;13.622;2022-11-18T07:09:12;45.17;;;32.42;;
49858;SDS011;35756;52.346;13.622;2022-11-18T07:11:37;41.88;;;24.80;;
49858;SDS011;35756;52.346;13.622;2022-11-18T07:14:05;44.13;;;25.05;;
49858;SDS011;35756;52.346;13.622;2022-11-18T07:16:30;40.20;;;21.35;;
49858;SDS011;35756;52.346;13.622;2022-11-18T07:18:55;48.72;;;37.95;;
49858;SDS011;35756;52.346;13.622;2022-11-18T07:21:22;42.63;;;27.40;;
49858;SDS011;35756;52.346;13.622;2022-11-18T07:23:48;40.30;;;18.90;;
49858;SDS011;35756;52.346;13.622;2022-11-18T07:26:14;41.15;;;20.15;;
49858;SDS011;35756;52.346;13.622;2022-11-18T07:28:40;50.22;;;34.03;;
49858;SDS011;35756;52.346;13.622;2022-11-18T07:31:07;39.50;;;18.48;;
49858;SDS011;35756;52.346;13.622;2022-11-18T07:33:34;40.08;;;18.85;;
49858;SDS011;35756;52.346;13.622;2022-11-18T07:36:10;116.20;;;107.10;;
49858;SDS011;35756;52.346;13.622;2022-11-18T07:38:45;38.30;;;19.67;;
49858;SDS011;35756;52.346;13.622;2022-11-18T07:41:12;40.83;;;19.77;;
49858;SDS011;35756;52.346;13.622;2022-11-18T07:43:39;39.42;;;17.58;;
49858;SDS011;35756;52.346;13.622;2022-11-18T07:46:09;36.63;;;22.38;;
49858;SDS011;35756;52.346;13.622;2022-11-18T07:48:35;62.85;;;52.80;;
49858;SDS011;35756;52.346;13.622;2022-11-18T07:51:00;130.05;;;120.28;;
49858;SDS011;35756;52.346;13.622;2022-11-18T07:53:28;39.72;;;32.15;;
49858;SDS011;35756;52.346;13.622;2022-11-18T07:55:54;101.32;;;94.00;;
49858;SDS011;35756;52.346;13.622;2022-11-18T07:58:19;103.45;;;96.68;;
49858;SDS011;35756;52.346;13.622;2022-11-18T08:00:44;174.82;;;164.68;;
49858;SDS011;35756;52.346;13.622;2022-11-18T08:03:10;251.73;;;238.38;;
49858;SDS011;35756;52.346;13.622;2022-11-18T08:05:35;203.80;;;193.32;;
49858;SDS011;35756;52.346;13.622;2022-11-18T08:08:00;276.35;;;262.02;;
49858;SDS011;35756;52.346;13.622;2022-11-18T08:10:27;275.33;;;261.83;;
49858;SDS011;35756;52.346;13.622;2022-11-18T08:12:52;385.05;;;364.40;;
49858;SDS011;35756;52.346;13.622;2022-11-18T08:15:17;331.77;;;316.13;;
49858;SDS011;35756;52.346;13.622;2022-11-18T08:17:42;369.42;;;351.10;;
49858;SDS011;35756;52.346;13.622;2022-11-18T08:20:08;458.77;;;435.85;;
49858;SDS011;35756;52.346;13.622;2022-11-18T08:22:34;568.35;;;531.78;;
49858;SDS011;35756;52.346;13.622;2022-11-18T08:24:59;506.27;;;481.52;;
49858;SDS011;35756;52.346;13.622;2022-11-18T08:27:25;558.30;;;527.75;;
49858;SDS011;35756;52.346;13.622;2022-11-18T08:29:50;539.55;;;492.73;;
49858;SDS011;35756;52.346;13.622;2022-11-18T08:32:15;387.63;;;368.55;;
49858;SDS011;35756;52.346;13.622;2022-11-18T08:34:40;436.98;;;414.27;;
49858;SDS011;35756;52.346;13.622;2022-11-18T08:37:06;518.95;;;492.23;;
49858;SDS011;35756;52.346;13.622;2022-11-18T08:39:31;454.33;;;430.90;;
49858;SDS011;35756;52.346;13.622;2022-11-18T08:41:56;393.48;;;370.95;;
49858;SDS011;35756;52.346;13.622;2022-11-18T08:44:22;320.67;;;304.75;;
49858;SDS011;35756;52.346;13.622;2022-11-18T08:46:47;329.52;;;300.85;;
49858;SDS011;35756;52.346;13.622;2022-11-18T08:49:12;296.95;;;277.95;;
49858;SDS011;35756;52.346;13.622;2022-11-18T08:51:38;234.68;;;222.70;;
49858;SDS011;35756;52.346;13.622;2022-11-18T08:54:03;125.85;;;118.10;;
49858;SDS011;35756;52.346;13.622;2022-11-18T08:56:28;373.00;;;337.23;;
49858;SDS011;35756;52.346;13.622;2022-11-18T08:58:54;83.97;;;77.97;;
49858;SDS011;35756;52.346;13.622;2022-11-18T09:01:19;169.55;;;158.35;;
49858;SDS011;35756;52.346;13.622;2022-11-18T09:03:45;164.48;;;152.68;;
49858;SDS011;35756;52.346;13.622;2022-11-18T09:06:20;136.85;;;128.38;;
49858;SDS011;35756;52.346;13.622;2022-11-18T09:08:48;324.95;;;302.45;;
49858;SDS011;35756;52.346;13.622;2022-11-18T09:11:17;154.43;;;145.18;;
49858;SDS011;35756;52.346;13.622;2022-11-18T09:13:44;92.55;;;85.47;;
49858;SDS011;35756;52.346;13.622;2022-11-18T09:16:09;133.25;;;124.32;;
49858;SDS011;35756;52.346;13.622;2022-11-18T09:18:37;216.05;;;202.88;;
49858;SDS011;35756;52.346;13.622;2022-11-18T09:21:03;421.83;;;388.55;;
49858;SDS011;35756;52.346;13.622;2022-11-18T09:23:32;74.78;;;69.13;;
49858;SDS011;35756;52.346;13.622;2022-11-18T09:25:59;174.63;;;161.40;;
49858;SDS011;35756;52.346;13.622;2022-11-18T09:28:29;66.22;;;60.97;;
49858;SDS011;35756;52.346;13.622;2022-11-18T09:30:54;325.83;;;307.00;;
49858;SDS011;35756;52.346;13.622;2022-11-18T09:33:20;217.52;;;203.75;;
49858;SDS011;35756;52.346;13.622;2022-11-18T09:35:45;216.23;;;203.15;;
49858;SDS011;35756;52.346;13.622;2022-11-18T09:38:11;257.70;;;236.63;;
49858;SDS011;35756;52.346;13.622;2022-11-18T09:40:39;170.88;;;161.23;;
49858;SDS011;35756;52.346;13.622;2022-11-18T09:43:29;219.15;;;205.82;;
49858;SDS011;35756;52.346;13.622;2022-11-18T09:46:19;349.08;;;325.10;;
49858;SDS011;35756;52.346;13.622;2022-11-18T09:48:48;202.70;;;189.32;;
49858;SDS011;35756;52.346;13.622;2022-11-18T09:51:34;269.55;;;252.77;;
49858;SDS011;35756;52.346;13.622;2022-11-18T09:54:02;185.88;;;175.00;;
49858;SDS011;35756;52.346;13.622;2022-11-18T09:56:27;210.52;;;195.73;;
49858;SDS011;35756;52.346;13.622;2022-11-18T09:58:53;128.50;;;120.43;;
49858;SDS011;35756;52.346;13.622;2022-11-18T10:01:19;202.68;;;190.60;;
49858;SDS011;35756;52.346;13.622;2022-11-18T10:03:45;191.93;;;177.63;;
49858;SDS011;35756;52.346;13.622;2022-11-18T10:06:17;145.63;;;136.68;;
49858;SDS011;35756;52.346;13.622;2022-11-18T10:11:39;295.35;;;277.63;;
49858;SDS011;35756;52.346;13.622;2022-11-18T10:14:32;628.88;;;568.70;;
49858;SDS011;35756;52.346;13.622;2022-11-18T10:17:07;508.27;;;471.10;;
49858;SDS011;35756;52.346;13.622;2022-11-18T10:22:25;472.27;;;441.98;;
49858;SDS011;35756;52.346;13.622;2022-11-18T10:24:56;380.40;;;359.43;;
49858;SDS011;35756;52.346;13.622;2022-11-18T10:27:23;492.40;;;456.98;;
49858;SDS011;35756;52.346;13.622;2022-11-18T10:29:52;586.28;;;542.88;;
49858;SDS011;35756;52.346;13.622;2022-11-18T10:32:19;333.95;;;312.23;;
49858;SDS011;35756;52.346;13.622;2022-11-18T10:34:55;190.32;;;178.57;;
49858;SDS011;35756;52.346;13.622;2022-11-18T10:37:26;178.93;;;168.20;;
49858;SDS011;35756;52.346;13.622;2022-11-18T10:39:53;421.08;;;394.98;;
49858;SDS011;35756;52.346;13.622;2022-11-18T10:42:25;604.38;;;552.72;;
49858;SDS011;35756;52.346;13.622;2022-11-18T10:50:39;318.40;;;298.52;;
49858;SDS011;35756;52.346;13.622;2022-11-18T10:53:24;334.40;;;314.90;;
49858;SDS011;35756;52.346;13.622;2022-11-18T10:56:01;345.90;;;326.65;;
49858;SDS011;35756;52.346;13.622;2022-11-18T10:58:34;390.38;;;366.25;;
49858;SDS011;35756;52.346;13.622;2022-11-18T11:01:04;418.65;;;391.95;;
49858;SDS011;35756;52.346;13.622;2022-11-18T11:03:35;353.58;;;334.08;;
49858;SDS011;35756;52.346;13.622;2022-11-18T11:06:12;680.75;;;638.55;;
49858;SDS011;35756;52.346;13.622;2022-11-18T11:11:23;306.35;;;288.58;;
49858;SDS011;35756;52.346;13.622;2022-11-18T11:13:55;204.40;;;193.02;;
49858;SDS011;35756;52.346;13.622;2022-11-18T11:16:25;247.75;;;234.05;;
49858;SDS011;35756;52.346;13.622;2022-11-18T11:18:52;280.63;;;262.90;;
49858;SDS011;35756;52.346;13.622;2022-11-18T11:21:21;465.35;;;434.65;;
49858;SDS011;35756;52.346;13.622;2022-11-18T11:23:49;472.42;;;442.60;;
49858;SDS011;35756;52.346;13.622;2022-11-18T11:26:19;496.05;;;462.65;;
49858;SDS011;35756;52.346;13.622;2022-11-18T11:29:00;402.55;;;379.88;;
49858;SDS011;35756;52.346;13.622;2022-11-18T11:34:58;442.65;;;417.05;;
49858;SDS011;35756;52.346;13.622;2022-11-18T11:37:46;649.95;;;608.78;;
49858;SDS011;35756;52.346;13.622;2022-11-18T11:40:19;557.22;;;523.95;;
49858;SDS011;35756;52.346;13.622;2022-11-18T11:43:04;246.65;;;233.13;;
49858;SDS011;35756;52.346;13.622;2022-11-18T11:46:00;504.77;;;473.27;;
49858;SDS011;35756;52.346;13.622;2022-11-18T11:48:54;473.17;;;446.25;;
49858;SDS011;35756;52.346;13.622;2022-11-18T11:51:28;362.35;;;341.83;;
49858;SDS011;35756;52.346;13.622;2022-11-18T11:56:56;272.80;;;257.25;;
49858;SDS011;35756;52.346;13.622;2022-11-18T12:05:30;356.73;;;336.80;;
49858;SDS011;35756;52.346;13.622;2022-11-18T12:08:00;173.38;;;163.88;;
49858;SDS011;35756;52.346;13.622;2022-11-18T12:10:34;349.23;;;327.38;;
49858;SDS011;35756;52.346;13.622;2022-11-18T12:15:53;305.77;;;283.92;;
49858;SDS011;35756;52.346;13.622;2022-11-18T12:18:24;151.80;;;143.27;;
49858;SDS011;35756;52.346;13.622;2022-11-18T12:21:02;300.58;;;284.95;;
49858;SDS011;35756;52.346;13.622;2022-11-18T12:23:29;292.73;;;275.88;;
49858;SDS011;35756;52.346;13.622;2022-11-18T12:25:56;395.25;;;370.70;;
49858;SDS011;35756;52.346;13.622;2022-11-18T12:28:27;171.15;;;162.35;;
49858;SDS011;35756;52.346;13.622;2022-11-18T12:33:44;386.05;;;363.73;;
49858;SDS011;35756;52.346;13.622;2022-11-18T12:36:23;267.38;;;252.30;;
49858;SDS011;35756;52.346;13.622;2022-11-18T12:38:50;702.75;;;649.28;;
49858;SDS011;35756;52.346;13.622;2022-11-18T12:44:37;686.13;;;638.25;;
49858;SDS011;35756;52.346;13.622;2022-11-18T12:47:03;530.25;;;499.42;;
49858;SDS011;35756;52.346;13.622;2022-11-18T12:50:15;749.45;;;676.67;;
49858;SDS011;35756;52.346;13.622;2022-11-18T12:54:55;752.30;;;706.03;;
49858;SDS011;35756;52.346;13.622;2022-11-18T12:57:26;849.97;;;779.47;;
49858;SDS011;35756;52.346;13.622;2022-11-18T12:59:52;678.33;;;634.70;;
49858;SDS011;35756;52.346;13.622;2022-11-18T13:05:09;693.40;;;650.30;;
49858;SDS011;35756;52.346;13.622;2022-11-18T13:07:42;632.33;;;589.50;;
49858;SDS011;35756;52.346;13.622;2022-11-18T13:10:28;495.85;;;466.77;;
49858;SDS011;35756;52.346;13.622;2022-11-18T13:12:55;602.53;;;566.25;;
49858;SDS011;35756;52.346;13.622;2022-11-18T13:15:20;660.70;;;617.28;;
49858;SDS011;35756;52.346;13.622;2022-11-18T13:18:06;685.55;;;644.53;;
49858;SDS011;35756;52.346;13.622;2022-11-18T13:20:41;610.72;;;571.13;;
49858;SDS011;35756;52.346;13.622;2022-11-18T13:25:54;794.78;;;732.80;;
49858;SDS011;35756;52.346;13.622;2022-11-18T13:28:37;403.52;;;380.38;;
49858;SDS011;35756;52.346;13.622;2022-11-18T13:33:59;381.33;;;360.52;;
49858;SDS011;35756;52.346;13.622;2022-11-18T13:36:26;369.70;;;350.00;;
49858;SDS011;35756;52.346;13.622;2022-11-18T13:38:58;659.42;;;612.08;;
49858;SDS011;35756;52.346;13.622;2022-11-18T13:41:26;559.42;;;521.67;;
49858;SDS011;35756;52.346;13.622;2022-11-18T13:46:47;773.55;;;716.47;;
49858;SDS011;35756;52.346;13.622;2022-11-18T13:49:16;452.58;;;426.35;;
49858;SDS011;35756;52.346;13.622;2022-11-18T13:51:43;568.67;;;534.38;;
49858;SDS011;35756;52.346;13.622;2022-11-18T13:54:13;380.90;;;358.27;;
49858;SDS011;35756;52.346;13.622;2022-11-18T13:56:43;524.83;;;488.52;;
49858;SDS011;35756;52.346;13.622;2022-11-18T13:59:13;707.28;;;657.30;;
49858;SDS011;35756;52.346;13.622;2022-11-18T14:01:42;801.03;;;738.25;;
49858;SDS011;35756;52.346;13.622;2022-11-18T14:04:18;815.65;;;756.85;;
49858;SDS011;35756;52.346;13.622;2022-11-18T14:06:44;738.63;;;688.63;;
49858;SDS011;35756;52.346;13.622;2022-11-18T14:11:36;662.53;;;615.73;;
49858;SDS011;35756;52.346;13.622;2022-11-18T14:14:03;444.52;;;417.25;;
49858;SDS011;35756;52.346;13.622;2022-11-18T14:16:31;399.27;;;376.42;;
49858;SDS011;35756;52.346;13.622;2022-11-18T14:18:58;697.92;;;649.67;;
49858;SDS011;35756;52.346;13.622;2022-11-18T14:21:26;832.00;;;771.70;;
49858;SDS011;35756;52.346;13.622;2022-11-18T14:23:53;740.50;;;690.38;;
49858;SDS011;35756;52.346;13.622;2022-11-18T14:26:25;794.53;;;738.00;;
49858;SDS011;35756;52.346;13.622;2022-11-18T14:28:56;569.58;;;532.70;;
49858;SDS011;35756;52.346;13.622;2022-11-18T14:31:29;577.92;;;538.40;;
49858;SDS011;35756;52.346;13.622;2022-11-18T14:36:43;861.00;;;798.28;;
49858;SDS011;35756;52.346;13.622;2022-11-18T14:41:46;579.50;;;536.47;;
49858;SDS011;35756;52.346;13.622;2022-11-18T14:44:11;543.83;;;508.35;;
49858;SDS011;35756;52.346;13.622;2022-11-18T14:46:37;413.48;;;389.30;;
49858;SDS011;35756;52.346;13.622;2022-11-18T14:49:03;402.35;;;377.77;;
49858;SDS011;35756;52.346;13.622;2022-11-18T14:51:30;389.77;;;368.77;;
49858;SDS011;35756;52.346;13.622;2022-11-18T14:53:56;319.02;;;301.85;;
49858;SDS011;35756;52.346;13.622;2022-11-18T14:56:23;439.58;;;410.90;;
49858;SDS011;35756;52.346;13.622;2022-11-18T14:58:51;412.10;;;388.13;;
49858;SDS011;35756;52.346;13.622;2022-11-18T15:01:16;340.63;;;322.33;;
49858;SDS011;35756;52.346;13.622;2022-11-18T15:03:41;399.83;;;377.67;;
49858;SDS011;35756;52.346;13.622;2022-11-18T15:06:13;416.25;;;393.08;;
49858;SDS011;35756;52.346;13.622;2022-11-18T15:08:39;376.30;;;356.77;;
49858;SDS011;35756;52.346;13.622;2022-11-18T15:11:05;404.42;;;383.10;;